sensor_id;sensor_type;location;lat;lon;timestamp;pressure;altitude;pressure_sealevel;temperature;humidity
58757;BME280;44527;47.460;19.016;2023-02-28T00:00:46;101373.09;;;2.45;52.76
58757;BME280;44527;47.460;19.016;2023-02-28T00:03:48;101382.34;;;2.59;52.71
58757;BME280;44527;47.460;19.016;2023-02-28T00:06:51;101375.59;;;2.50;52.17
58757;BME280;44527;47.460;19.016;2023-02-28T00:09:54;101388.69;;;2.41;53.28
58757;BME280;44527;47.460;19.016;2023-02-28T00:13:03;101386.69;;;2.57;52.51
58757;BME280;44527;47.460;19.016;2023-02-28T00:16:09;101392.56;;;2.68;51.98
58757;BME280;44527;47.460;19.016;2023-02-28T00:19:12;101395.12;;;2.71;52.19
58757;BME280;44527;47.460;19.016;2023-02-28T00:22:17;101399.72;;;2.53;52.08
58757;BME280;44527;47.460;19.016;2023-02-28T00:25:23;101399.59;;;2.60;52.34
58757;BME280;44527;47.460;19.016;2023-02-28T00:28:26;101397.72;;;2.71;51.44
58757;BME280;44527;47.460;19.016;2023-02-28T00:31:29;101400.31;;;2.71;51.78
58757;BME280;44527;47.460;19.016;2023-02-28T00:34:32;101400.44;;;2.62;52.02
58757;BME280;44527;47.460;19.016;2023-02-28T00:37:39;101406.53;;;2.61;52.71
58757;BME280;44527;47.460;19.016;2023-02-28T00:40:43;101406.87;;;2.39;52.52
58757;BME280;44527;47.460;19.016;2023-02-28T00:43:45;101413.56;;;2.52;53.16
58757;BME280;44527;47.460;19.016;2023-02-28T00:46:48;101404.09;;;2.50;52.33
58757;BME280;44527;47.460;19.016;2023-02-28T00:49:50;101410.06;;;2.53;52.21
58757;BME280;44527;47.460;19.016;2023-02-28T00:52:53;101413.69;;;2.42;53.50
58757;BME280;44527;47.460;19.016;2023-02-28T00:55:55;101414.59;;;2.42;53.28
58757;BME280;44527;47.460;19.016;2023-02-28T00:59:00;101417.09;;;2.48;53.17
58757;BME280;44527;47.460;19.016;2023-02-28T01:02:03;101411.47;;;2.74;52.02
58757;BME280;44527;47.460;19.016;2023-02-28T01:05:06;101413.56;;;2.52;52.03
58757;BME280;44527;47.460;19.016;2023-02-28T01:08:08;101414.97;;;2.72;52.16
58757;BME280;44527;47.460;19.016;2023-02-28T01:11:13;101409.16;;;2.58;53.26
58757;BME280;44527;47.460;19.016;2023-02-28T01:14:17;101409.78;;;2.72;51.84
58757;BME280;44527;47.460;19.016;2023-02-28T01:17:20;101411.19;;;2.91;50.64
58757;BME280;44527;47.460;19.016;2023-02-28T01:20:23;101409.47;;;2.90;51.90
58757;BME280;44527;47.460;19.016;2023-02-28T01:23:26;101403.72;;;2.73;51.62
58757;BME280;44527;47.460;19.016;2023-02-28T01:26:28;101412.16;;;2.84;52.13
58757;BME280;44527;47.460;19.016;2023-02-28T01:29:31;101405.38;;;2.77;51.12
58757;BME280;44527;47.460;19.016;2023-02-28T01:32:35;101415.84;;;2.72;51.55
58757;BME280;44527;47.460;19.016;2023-02-28T01:35:38;101412.25;;;2.80;50.83
58757;BME280;44527;47.460;19.016;2023-02-28T01:38:40;101415.16;;;2.60;51.40
58757;BME280;44527;47.460;19.016;2023-02-28T01:41:43;101419.63;;;2.51;51.82
58757;BME280;44527;47.460;19.016;2023-02-28T01:48:07;101411.66;;;2.64;51.76
58757;BME280;44527;47.460;19.016;2023-02-28T01:51:14;101408.78;;;2.81;50.99
58757;BME280;44527;47.460;19.016;2023-02-28T01:54:28;101405.41;;;2.75;51.17
58757;BME280;44527;47.460;19.016;2023-02-28T01:57:35;101407.09;;;2.78;51.02
58757;BME280;44527;47.460;19.016;2023-02-28T02:00:40;101404.59;;;2.72;51.10
58757;BME280;44527;47.460;19.016;2023-02-28T02:03:45;101401.25;;;2.65;51.33
58757;BME280;44527;47.460;19.016;2023-02-28T02:06:47;101403.69;;;2.76;51.17
58757;BME280;44527;47.460;19.016;2023-02-28T02:10:00;101403.63;;;2.78;51.57
58757;BME280;44527;47.460;19.016;2023-02-28T02:13:36;101398.34;;;2.85;51.74
58757;BME280;44527;47.460;19.016;2023-02-28T02:24:01;101395.97;;;2.71;52.98
58757;BME280;44527;47.460;19.016;2023-02-28T02:27:17;101404.03;;;2.55;52.39
58757;BME280;44527;47.460;19.016;2023-02-28T02:37:25;101403.53;;;2.29;52.82
58757;BME280;44527;47.460;19.016;2023-02-28T02:40:48;101396.78;;;2.19;53.01
58757;BME280;44527;47.460;19.016;2023-02-28T02:44:04;101400.13;;;2.26;54.10
58757;BME280;44527;47.460;19.016;2023-02-28T02:47:11;101406.03;;;2.36;53.23
58757;BME280;44527;47.460;19.016;2023-02-28T02:50:23;101402.53;;;2.38;53.30
58757;BME280;44527;47.460;19.016;2023-02-28T02:53:33;101397.41;;;2.37;53.37
58757;BME280;44527;47.460;19.016;2023-02-28T02:56:39;101395.00;;;2.24;53.77
58757;BME280;44527;47.460;19.016;2023-02-28T02:59:44;101405.56;;;2.09;53.26
58757;BME280;44527;47.460;19.016;2023-02-28T03:02:48;101405.69;;;2.00;53.40
58757;BME280;44527;47.460;19.016;2023-02-28T03:05:52;101412.63;;;1.98;52.85
58757;BME280;44527;47.460;19.016;2023-02-28T03:08:56;101408.28;;;2.00;52.87
58757;BME280;44527;47.460;19.016;2023-02-28T03:11:59;101402.03;;;2.15;53.32
58757;BME280;44527;47.460;19.016;2023-02-28T03:15:19;101409.81;;;2.13;53.89
58757;BME280;44527;47.460;19.016;2023-02-28T03:18:47;101411.53;;;2.14;53.38
58757;BME280;44527;47.460;19.016;2023-02-28T03:28:58;101414.81;;;2.27;53.19
58757;BME280;44527;47.460;19.016;2023-02-28T03:32:13;101410.56;;;2.20;53.63
58757;BME280;44527;47.460;19.016;2023-02-28T03:35:29;101410.34;;;2.35;52.94
58757;BME280;44527;47.460;19.016;2023-02-28T03:38:37;101415.56;;;2.34;53.13
58757;BME280;44527;47.460;19.016;2023-02-28T03:41:59;101408.97;;;2.13;53.63
58757;BME280;44527;47.460;19.016;2023-02-28T03:45:25;101412.41;;;2.15;53.97
58757;BME280;44527;47.460;19.016;2023-02-28T03:48:38;101411.66;;;2.06;53.50
58757;BME280;44527;47.460;19.016;2023-02-28T03:51:45;101424.44;;;2.17;53.74
58757;BME280;44527;47.460;19.016;2023-02-28T03:54:53;101418.47;;;2.11;53.74
58757;BME280;44527;47.460;19.016;2023-02-28T03:58:20;101431.44;;;2.12;53.67
58757;BME280;44527;47.460;19.016;2023-02-28T04:01:42;101417.63;;;2.12;53.74
58757;BME280;44527;47.460;19.016;2023-02-28T04:04:46;101420.34;;;2.02;54.95
58757;BME280;44527;47.460;19.016;2023-02-28T04:07:50;101424.63;;;2.02;54.86
58757;BME280;44527;47.460;19.016;2023-02-28T04:14:14;101409.72;;;2.21;54.17
58757;BME280;44527;47.460;19.016;2023-02-28T04:17:17;101406.25;;;2.22;54.49
58757;BME280;44527;47.460;19.016;2023-02-28T04:20:21;101407.84;;;2.30;54.06
58757;BME280;44527;47.460;19.016;2023-02-28T04:23:23;101402.53;;;2.40;54.36
58757;BME280;44527;47.460;19.016;2023-02-28T04:26:30;101407.66;;;2.43;54.02
58757;BME280;44527;47.460;19.016;2023-02-28T04:29:33;101404.38;;;2.33;54.17
58757;BME280;44527;47.460;19.016;2023-02-28T04:32:36;101408.47;;;2.45;53.80
58757;BME280;44527;47.460;19.016;2023-02-28T04:35:39;101403.34;;;2.43;54.04
58757;BME280;44527;47.460;19.016;2023-02-28T04:38:41;101410.16;;;2.47;54.54
58757;BME280;44527;47.460;19.016;2023-02-28T04:41:45;101407.00;;;2.30;54.29
58757;BME280;44527;47.460;19.016;2023-02-28T04:44:48;101405.41;;;2.20;54.05
58757;BME280;44527;47.460;19.016;2023-02-28T04:47:51;101398.47;;;2.22;53.53
58757;BME280;44527;47.460;19.016;2023-02-28T04:51:00;101403.56;;;2.28;54.19
58757;BME280;44527;47.460;19.016;2023-02-28T04:54:03;101414.41;;;2.55;53.58
58757;BME280;44527;47.460;19.016;2023-02-28T04:57:05;101398.94;;;2.47;53.84
58757;BME280;44527;47.460;19.016;2023-02-28T05:00:10;101404.19;;;2.44;54.64
58757;BME280;44527;47.460;19.016;2023-02-28T05:03:13;101397.25;;;2.46;52.96
58757;BME280;44527;47.460;19.016;2023-02-28T05:06:16;101400.84;;;2.37;53.36
58757;BME280;44527;47.460;19.016;2023-02-28T05:09:19;101409.34;;;2.45;54.26
58757;BME280;44527;47.460;19.016;2023-02-28T05:12:22;101405.94;;;2.42;54.60
58757;BME280;44527;47.460;19.016;2023-02-28T05:15:24;101406.87;;;2.39;54.29
58757;BME280;44527;47.460;19.016;2023-02-28T05:18:27;101399.50;;;2.66;52.56
58757;BME280;44527;47.460;19.016;2023-02-28T05:21:33;101401.84;;;2.81;52.31
58757;BME280;44527;47.460;19.016;2023-02-28T05:24:35;101401.19;;;2.70;52.20
58757;BME280;44527;47.460;19.016;2023-02-28T05:27:38;101409.13;;;2.61;53.02
58757;BME280;44527;47.460;19.016;2023-02-28T05:30:41;101410.13;;;2.52;53.23
58757;BME280;44527;47.460;19.016;2023-02-28T05:33:43;101411.12;;;2.42;53.04
58757;BME280;44527;47.460;19.016;2023-02-28T05:36:46;101416.47;;;2.31;52.83
58757;BME280;44527;47.460;19.016;2023-02-28T05:39:48;101420.53;;;2.47;53.47
58757;BME280;44527;47.460;19.016;2023-02-28T05:42:53;101419.59;;;2.55;52.83
58757;BME280;44527;47.460;19.016;2023-02-28T05:45:57;101423.13;;;2.49;52.65
58757;BME280;44527;47.460;19.016;2023-02-28T05:49:03;101420.34;;;2.60;52.98
58757;BME280;44527;47.460;19.016;2023-02-28T05:52:05;101421.84;;;2.74;51.98
58757;BME280;44527;47.460;19.016;2023-02-28T05:55:08;101427.03;;;2.74;52.54
58757;BME280;44527;47.460;19.016;2023-02-28T05:58:11;101427.41;;;2.51;52.78
58757;BME280;44527;47.460;19.016;2023-02-28T06:01:45;101439.22;;;2.69;53.09
58757;BME280;44527;47.460;19.016;2023-02-28T06:04:55;101433.87;;;2.79;52.30
58757;BME280;44527;47.460;19.016;2023-02-28T06:07:57;101427.91;;;2.73;52.62
58757;BME280;44527;47.460;19.016;2023-02-28T06:11:03;101441.53;;;2.86;52.65
58757;BME280;44527;47.460;19.016;2023-02-28T06:14:05;101431.78;;;3.01;52.19
58757;BME280;44527;47.460;19.016;2023-02-28T06:17:08;101435.19;;;3.04;52.40
58757;BME280;44527;47.460;19.016;2023-02-28T06:20:11;101441.19;;;3.06;52.05
58757;BME280;44527;47.460;19.016;2023-02-28T06:23:15;101442.38;;;2.88;52.48
58757;BME280;44527;47.460;19.016;2023-02-28T06:26:18;101437.94;;;2.95;52.04
58757;BME280;44527;47.460;19.016;2023-02-28T06:29:21;101441.00;;;3.17;52.09
58757;BME280;44527;47.460;19.016;2023-02-28T06:32:24;101446.06;;;3.25;52.21
58757;BME280;44527;47.460;19.016;2023-02-28T06:35:27;101449.56;;;3.22;51.97
58757;BME280;44527;47.460;19.016;2023-02-28T06:38:30;101452.91;;;3.27;51.19
58757;BME280;44527;47.460;19.016;2023-02-28T06:41:33;101456.38;;;3.28;50.86
58757;BME280;44527;47.460;19.016;2023-02-28T06:44:56;101466.63;;;3.35;50.90
58757;BME280;44527;47.460;19.016;2023-02-28T06:48:02;101466.31;;;3.52;50.18
58757;BME280;44527;47.460;19.016;2023-02-28T06:51:10;101465.56;;;3.45;49.73
58757;BME280;44527;47.460;19.016;2023-02-28T06:54:14;101460.72;;;3.74;49.70
58757;BME280;44527;47.460;19.016;2023-02-28T06:57:17;101464.88;;;3.36;49.46
58757;BME280;44527;47.460;19.016;2023-02-28T07:00:20;101458.38;;;3.60;50.10
58757;BME280;44527;47.460;19.016;2023-02-28T07:03:23;101462.34;;;3.76;49.38
58757;BME280;44527;47.460;19.016;2023-02-28T07:06:26;101464.72;;;3.88;48.86
58757;BME280;44527;47.460;19.016;2023-02-28T07:09:29;101469.00;;;3.91;48.53
58757;BME280;44527;47.460;19.016;2023-02-28T07:12:32;101477.37;;;4.05;48.16
58757;BME280;44527;47.460;19.016;2023-02-28T07:15:36;101478.22;;;4.06;48.32
58757;BME280;44527;47.460;19.016;2023-02-28T07:18:43;101484.72;;;4.27;47.18
58757;BME280;44527;47.460;19.016;2023-02-28T07:21:46;101486.78;;;4.11;47.37
58757;BME280;44527;47.460;19.016;2023-02-28T07:24:52;101483.22;;;4.15;47.48
58757;BME280;44527;47.460;19.016;2023-02-28T07:27:55;101486.53;;;4.23;47.34
58757;BME280;44527;47.460;19.016;2023-02-28T07:31:08;101486.06;;;4.45;47.12
58757;BME280;44527;47.460;19.016;2023-02-28T07:34:10;101486.00;;;4.46;46.25
58757;BME280;44527;47.460;19.016;2023-02-28T07:37:12;101490.91;;;4.60;47.34
58757;BME280;44527;47.460;19.016;2023-02-28T07:40:16;101499.75;;;4.89;45.85
58757;BME280;44527;47.460;19.016;2023-02-28T07:43:22;101496.38;;;4.85;45.41
58757;BME280;44527;47.460;19.016;2023-02-28T07:46:25;101495.19;;;4.98;44.36
58757;BME280;44527;47.460;19.016;2023-02-28T07:49:32;101496.22;;;4.91;44.22
58757;BME280;44527;47.460;19.016;2023-02-28T07:52:36;101497.16;;;4.89;44.28
58757;BME280;44527;47.460;19.016;2023-02-28T07:55:39;101498.37;;;4.74;44.74
58757;BME280;44527;47.460;19.016;2023-02-28T07:58:42;101496.31;;;4.51;46.29
58757;BME280;44527;47.460;19.016;2023-02-28T08:01:45;101500.69;;;4.49;44.89
58757;BME280;44527;47.460;19.016;2023-02-28T08:04:49;101498.16;;;4.46;44.65
58757;BME280;44527;47.460;19.016;2023-02-28T08:07:54;101488.44;;;4.54;45.04
58757;BME280;44527;47.460;19.016;2023-02-28T08:11:01;101487.87;;;4.78;43.70
58757;BME280;44527;47.460;19.016;2023-02-28T08:14:04;101491.72;;;4.98;43.70
58757;BME280;44527;47.460;19.016;2023-02-28T08:17:09;101488.56;;;4.85;43.85
58757;BME280;44527;47.460;19.016;2023-02-28T08:20:12;101487.87;;;4.78;43.35
58757;BME280;44527;47.460;19.016;2023-02-28T08:23:15;101490.13;;;4.92;43.10
58757;BME280;44527;47.460;19.016;2023-02-28T08:26:18;101498.94;;;5.22;43.38
58757;BME280;44527;47.460;19.016;2023-02-28T08:29:21;101496.66;;;5.75;43.48
58757;BME280;44527;47.460;19.016;2023-02-28T08:32:24;101494.50;;;6.21;42.97
58757;BME280;44527;47.460;19.016;2023-02-28T08:35:32;101488.50;;;6.19;41.37
58757;BME280;44527;47.460;19.016;2023-02-28T08:38:35;101489.66;;;6.38;42.84
58757;BME280;44527;47.460;19.016;2023-02-28T08:41:38;101486.06;;;6.71;41.60
58757;BME280;44527;47.460;19.016;2023-02-28T08:44:40;101492.34;;;6.63;41.00
58757;BME280;44527;47.460;19.016;2023-02-28T08:47:43;101499.62;;;6.54;42.11
58757;BME280;44527;47.460;19.016;2023-02-28T08:51:16;101496.66;;;6.36;41.22
58757;BME280;44527;47.460;19.016;2023-02-28T08:54:21;101490.41;;;6.70;40.97
58757;BME280;44527;47.460;19.016;2023-02-28T08:57:23;101488.34;;;6.24;41.43
58757;BME280;44527;47.460;19.016;2023-02-28T09:00:28;101496.34;;;6.17;43.23
58757;BME280;44527;47.460;19.016;2023-02-28T09:03:32;101488.31;;;6.25;42.46
58757;BME280;44527;47.460;19.016;2023-02-28T09:06:35;101486.97;;;6.41;41.16
58757;BME280;44527;47.460;19.016;2023-02-28T09:09:38;101488.34;;;6.53;42.14
58757;BME280;44527;47.460;19.016;2023-02-28T09:13:00;101493.78;;;6.74;41.65
58757;BME280;44527;47.460;19.016;2023-02-28T09:16:06;101495.28;;;6.81;41.65
58757;BME280;44527;47.460;19.016;2023-02-28T09:19:13;101483.72;;;6.89;42.38
58757;BME280;44527;47.460;19.016;2023-02-28T09:22:16;101484.81;;;7.09;41.90
58757;BME280;44527;47.460;19.016;2023-02-28T09:25:19;101488.00;;;6.92;41.18
58757;BME280;44527;47.460;19.016;2023-02-28T09:28:21;101484.13;;;6.49;41.71
58757;BME280;44527;47.460;19.016;2023-02-28T09:31:29;101490.09;;;6.53;42.04
58757;BME280;44527;47.460;19.016;2023-02-28T09:34:32;101490.56;;;6.65;42.05
58757;BME280;44527;47.460;19.016;2023-02-28T09:37:34;101492.03;;;6.74;41.13
58757;BME280;44527;47.460;19.016;2023-02-28T09:40:49;101494.13;;;6.63;42.20
58757;BME280;44527;47.460;19.016;2023-02-28T09:43:55;101491.56;;;6.88;41.55
58757;BME280;44527;47.460;19.016;2023-02-28T09:47:05;101487.22;;;6.88;41.12
58757;BME280;44527;47.460;19.016;2023-02-28T09:53:33;101493.31;;;6.61;42.91
58757;BME280;44527;47.460;19.016;2023-02-28T09:56:39;101487.41;;;6.56;43.22
58757;BME280;44527;47.460;19.016;2023-02-28T10:03:30;101485.63;;;6.56;42.72
58757;BME280;44527;47.460;19.016;2023-02-28T10:06:44;101486.03;;;6.42;42.99
58757;BME280;44527;47.460;19.016;2023-02-28T10:09:52;101479.75;;;6.50;43.07
58757;BME280;44527;47.460;19.016;2023-02-28T10:12:59;101485.09;;;6.73;42.37
58757;BME280;44527;47.460;19.016;2023-02-28T10:16:09;101475.09;;;6.59;41.80
58757;BME280;44527;47.460;19.016;2023-02-28T10:19:20;101473.94;;;7.21;40.56
58757;BME280;44527;47.460;19.016;2023-02-28T10:25:29;101468.50;;;7.27;41.23
58757;BME280;44527;47.460;19.016;2023-02-28T10:28:31;101465.41;;;7.16;41.86
58757;BME280;44527;47.460;19.016;2023-02-28T10:31:34;101472.72;;;7.31;41.80
58757;BME280;44527;47.460;19.016;2023-02-28T10:34:37;101473.41;;;7.11;40.62
58757;BME280;44527;47.460;19.016;2023-02-28T10:37:41;101464.84;;;7.08;41.26
58757;BME280;44527;47.460;19.016;2023-02-28T10:40:46;101464.44;;;6.94;42.60
58757;BME280;44527;47.460;19.016;2023-02-28T10:43:49;101458.28;;;6.95;41.51
58757;BME280;44527;47.460;19.016;2023-02-28T10:46:56;101455.22;;;6.83;41.50
58757;BME280;44527;47.460;19.016;2023-02-28T10:49:59;101450.94;;;6.81;41.86
58757;BME280;44527;47.460;19.016;2023-02-28T10:56:29;101447.47;;;6.80;41.30
58757;BME280;44527;47.460;19.016;2023-02-28T10:59:33;101445.03;;;7.01;41.58
58757;BME280;44527;47.460;19.016;2023-02-28T11:02:36;101449.31;;;7.03;41.93
58757;BME280;44527;47.460;19.016;2023-02-28T11:05:45;101439.97;;;6.70;42.19
58757;BME280;44527;47.460;19.016;2023-02-28T11:08:54;101445.34;;;7.18;41.65
58757;BME280;44527;47.460;19.016;2023-02-28T11:11:57;101444.31;;;7.22;41.77
58757;BME280;44527;47.460;19.016;2023-02-28T11:15:03;101445.19;;;7.48;41.22
58757;BME280;44527;47.460;19.016;2023-02-28T11:21:30;101442.31;;;7.79;40.40
58757;BME280;44527;47.460;19.016;2023-02-28T11:24:42;101445.75;;;7.79;41.52
58757;BME280;44527;47.460;19.016;2023-02-28T11:27:51;101438.66;;;7.34;42.62
58757;BME280;44527;47.460;19.016;2023-02-28T11:34:26;101431.97;;;7.99;40.39
58757;BME280;44527;47.460;19.016;2023-02-28T11:37:30;101428.09;;;7.63;42.51
58757;BME280;44527;47.460;19.016;2023-02-28T11:40:46;101433.87;;;7.22;42.42
58757;BME280;44527;47.460;19.016;2023-02-28T11:44:18;101436.13;;;7.33;43.24
58757;BME280;44527;47.460;19.016;2023-02-28T11:51:03;101427.56;;;7.53;42.24
58757;BME280;44527;47.460;19.016;2023-02-28T12:00:39;101415.03;;;7.86;42.20
58757;BME280;44527;47.460;19.016;2023-02-28T12:05:04;101422.03;;;8.07;41.67
58757;BME280;44527;47.460;19.016;2023-02-28T12:11:09;101406.72;;;8.44;40.69
58757;BME280;44527;47.460;19.016;2023-02-28T12:21:27;101403.37;;;7.71;42.03
58757;BME280;44527;47.460;19.016;2023-02-28T12:24:49;101399.81;;;7.50;42.56
58757;BME280;44527;47.460;19.016;2023-02-28T12:27:57;101395.97;;;7.59;42.85
58757;BME280;44527;47.460;19.016;2023-02-28T12:31:38;101381.97;;;7.85;41.94
58757;BME280;44527;47.460;19.016;2023-02-28T12:34:45;101386.59;;;8.00;41.89
58757;BME280;44527;47.460;19.016;2023-02-28T12:41:03;101372.81;;;7.26;43.47
58757;BME280;44527;47.460;19.016;2023-02-28T12:44:17;101378.25;;;7.20;43.93
58757;BME280;44527;47.460;19.016;2023-02-28T12:47:21;101372.81;;;7.26;45.25
58757;BME280;44527;47.460;19.016;2023-02-28T12:50:25;101378.56;;;7.59;44.04
58757;BME280;44527;47.460;19.016;2023-02-28T12:54:23;101375.50;;;7.72;43.75
58757;BME280;44527;47.460;19.016;2023-02-28T12:57:36;101369.75;;;7.62;44.66
58757;BME280;44527;47.460;19.016;2023-02-28T13:11:41;101363.72;;;7.83;43.50
58757;BME280;44527;47.460;19.016;2023-02-28T13:14:44;101363.16;;;7.75;44.29
58757;BME280;44527;47.460;19.016;2023-02-28T13:17:50;101351.44;;;7.62;43.72
58757;BME280;44527;47.460;19.016;2023-02-28T13:20:52;101352.59;;;7.78;44.06
58757;BME280;44527;47.460;19.016;2023-02-28T13:24:02;101349.50;;;7.91;42.79
58757;BME280;44527;47.460;19.016;2023-02-28T13:40:32;101332.91;;;7.46;45.72
58757;BME280;44527;47.460;19.016;2023-02-28T13:44:20;101343.91;;;7.54;45.77
58757;BME280;44527;47.460;19.016;2023-02-28T13:47:23;101333.69;;;7.48;45.41
58757;BME280;44527;47.460;19.016;2023-02-28T13:53:56;101307.13;;;7.13;46.86
58757;BME280;44527;47.460;19.016;2023-02-28T14:07:50;101312.22;;;7.40;47.69
58757;BME280;44527;47.460;19.016;2023-02-28T14:11:05;101311.59;;;7.33;47.14
58757;BME280;44527;47.460;19.016;2023-02-28T14:14:09;101313.88;;;7.43;47.39
58757;BME280;44527;47.460;19.016;2023-02-28T14:17:32;101307.56;;;7.48;46.71
58757;BME280;44527;47.460;19.016;2023-02-28T14:20:36;101308.53;;;7.69;47.26
58757;BME280;44527;47.460;19.016;2023-02-28T14:30:51;101311.44;;;7.14;48.54
58757;BME280;44527;47.460;19.016;2023-02-28T14:37:39;101300.41;;;7.06;47.23
58757;BME280;44527;47.460;19.016;2023-02-28T14:40:41;101294.47;;;6.78;47.86
58757;BME280;44527;47.460;19.016;2023-02-28T14:43:53;101301.25;;;7.07;48.02
58757;BME280;44527;47.460;19.016;2023-02-28T14:47:01;101295.22;;;7.30;47.59
58757;BME280;44527;47.460;19.016;2023-02-28T14:50:18;101299.50;;;7.31;46.85
58757;BME280;44527;47.460;19.016;2023-02-28T14:53:24;101298.16;;;7.21;47.21
58757;BME280;44527;47.460;19.016;2023-02-28T14:56:38;101292.69;;;7.03;48.48
58757;BME280;44527;47.460;19.016;2023-02-28T14:59:40;101304.06;;;7.02;47.98
58757;BME280;44527;47.460;19.016;2023-02-28T15:02:43;101306.25;;;6.89;48.80
58757;BME280;44527;47.460;19.016;2023-02-28T15:05:59;101308.16;;;6.84;48.84
58757;BME280;44527;47.460;19.016;2023-02-28T15:09:17;101309.28;;;7.02;49.64
58757;BME280;44527;47.460;19.016;2023-02-28T15:12:20;101310.50;;;6.92;48.87
58757;BME280;44527;47.460;19.016;2023-02-28T15:19:25;101313.66;;;6.77;48.67
58757;BME280;44527;47.460;19.016;2023-02-28T15:22:35;101309.72;;;6.90;48.91
58757;BME280;44527;47.460;19.016;2023-02-28T15:25:40;101305.94;;;6.99;48.92
58757;BME280;44527;47.460;19.016;2023-02-28T15:28:43;101310.63;;;7.12;48.29
58757;BME280;44527;47.460;19.016;2023-02-28T15:35:25;101309.41;;;6.98;48.33
58757;BME280;44527;47.460;19.016;2023-02-28T15:38:28;101296.06;;;6.82;48.69
58757;BME280;44527;47.460;19.016;2023-02-28T15:41:37;101292.75;;;7.02;48.34
58757;BME280;44527;47.460;19.016;2023-02-28T15:44:42;101295.75;;;6.91;49.39
58757;BME280;44527;47.460;19.016;2023-02-28T15:47:45;101296.34;;;6.74;50.97
58757;BME280;44527;47.460;19.016;2023-02-28T15:50:51;101297.63;;;6.87;50.90
58757;BME280;44527;47.460;19.016;2023-02-28T15:54:01;101298.16;;;6.72;51.74
58757;BME280;44527;47.460;19.016;2023-02-28T15:57:06;101299.41;;;6.60;51.11
58757;BME280;44527;47.460;19.016;2023-02-28T16:00:15;101293.94;;;6.43;52.03
58757;BME280;44527;47.460;19.016;2023-02-28T16:03:34;101287.41;;;6.30;52.92
58757;BME280;44527;47.460;19.016;2023-02-28T16:06:46;101294.47;;;6.28;52.63
58757;BME280;44527;47.460;19.016;2023-02-28T16:10:03;101295.34;;;6.27;52.54
58757;BME280;44527;47.460;19.016;2023-02-28T16:13:06;101302.88;;;6.09;52.53
58757;BME280;44527;47.460;19.016;2023-02-28T16:16:18;101302.56;;;6.18;53.72
58757;BME280;44527;47.460;19.016;2023-02-28T16:19:23;101308.84;;;6.13;53.71
58757;BME280;44527;47.460;19.016;2023-02-28T16:22:26;101316.56;;;6.16;53.16
58757;BME280;44527;47.460;19.016;2023-02-28T16:25:34;101312.63;;;6.29;53.69
58757;BME280;44527;47.460;19.016;2023-02-28T16:28:38;101314.84;;;6.15;53.19
58757;BME280;44527;47.460;19.016;2023-02-28T16:31:40;101318.41;;;6.12;54.24
58757;BME280;44527;47.460;19.016;2023-02-28T16:34:44;101313.34;;;6.08;53.75
58757;BME280;44527;47.460;19.016;2023-02-28T16:37:47;101320.63;;;5.96;54.54
58757;BME280;44527;47.460;19.016;2023-02-28T16:40:51;101312.88;;;5.95;54.58
58757;BME280;44527;47.460;19.016;2023-02-28T16:43:58;101320.88;;;5.87;54.63
58757;BME280;44527;47.460;19.016;2023-02-28T16:47:03;101319.00;;;5.64;55.26
58757;BME280;44527;47.460;19.016;2023-02-28T16:50:18;101331.84;;;5.70;55.78
58757;BME280;44527;47.460;19.016;2023-02-28T16:53:21;101328.69;;;5.59;55.61
58757;BME280;44527;47.460;19.016;2023-02-28T16:56:24;101343.34;;;5.63;56.81
58757;BME280;44527;47.460;19.016;2023-02-28T16:59:28;101329.94;;;5.75;55.89
58757;BME280;44527;47.460;19.016;2023-02-28T17:02:30;101344.19;;;5.93;55.34
58757;BME280;44527;47.460;19.016;2023-02-28T17:05:37;101346.34;;;5.79;55.55
58757;BME280;44527;47.460;19.016;2023-02-28T17:08:40;101345.41;;;5.82;56.58
58757;BME280;44527;47.460;19.016;2023-02-28T17:11:43;101349.63;;;5.84;56.46
58757;BME280;44527;47.460;19.016;2023-02-28T17:14:46;101348.03;;;5.80;56.25
58757;BME280;44527;47.460;19.016;2023-02-28T17:17:49;101347.75;;;5.89;57.36
58757;BME280;44527;47.460;19.016;2023-02-28T17:20:52;101348.84;;;5.82;56.54
58757;BME280;44527;47.460;19.016;2023-02-28T17:23:54;101357.78;;;5.73;56.99
58757;BME280;44527;47.460;19.016;2023-02-28T17:26:58;101354.91;;;5.83;56.70
58757;BME280;44527;47.460;19.016;2023-02-28T17:30:03;101343.75;;;5.78;56.77
58757;BME280;44527;47.460;19.016;2023-02-28T17:33:05;101350.44;;;5.86;56.81
58757;BME280;44527;47.460;19.016;2023-02-28T17:36:23;101348.13;;;5.77;57.35
58757;BME280;44527;47.460;19.016;2023-02-28T17:39:26;101345.53;;;5.77;57.58
58757;BME280;44527;47.460;19.016;2023-02-28T17:42:29;101353.25;;;5.80;57.50
58757;BME280;44527;47.460;19.016;2023-02-28T17:45:31;101350.41;;;5.88;57.39
58757;BME280;44527;47.460;19.016;2023-02-28T17:48:34;101349.41;;;5.92;56.79
58757;BME280;44527;47.460;19.016;2023-02-28T17:51:38;101349.81;;;5.78;57.48
58757;BME280;44527;47.460;19.016;2023-02-28T17:54:41;101353.75;;;5.93;57.45
58757;BME280;44527;47.460;19.016;2023-02-28T17:57:46;101342.72;;;5.83;57.63
58757;BME280;44527;47.460;19.016;2023-02-28T18:00:49;101351.47;;;5.81;57.54
58757;BME280;44527;47.460;19.016;2023-02-28T18:03:56;101366.53;;;5.71;57.83
58757;BME280;44527;47.460;19.016;2023-02-28T18:06:58;101365.81;;;5.66;57.87
58757;BME280;44527;47.460;19.016;2023-02-28T18:10:03;101370.22;;;5.64;58.15
58757;BME280;44527;47.460;19.016;2023-02-28T18:13:05;101366.59;;;5.69;58.18
58757;BME280;44527;47.460;19.016;2023-02-28T18:16:08;101366.13;;;5.55;58.72
58757;BME280;44527;47.460;19.016;2023-02-28T18:19:11;101371.63;;;5.75;58.99
58757;BME280;44527;47.460;19.016;2023-02-28T18:22:18;101372.47;;;5.46;58.57
58757;BME280;44527;47.460;19.016;2023-02-28T18:25:21;101373.78;;;5.61;58.93